Time;durP1;ratioP1;P1;durP2;ratioP2;P2;SDS_P1;SDS_P2;PMS_P1;PMS_P2;Temp;Humidity;BMP_temperature;BMP_pressure;BME280_temperature;BME280_humidity;BME280_pressure;Samples;Min_cycle;Max_cycle;Signal;HPM_P1;HPM_P2
2023/04/27 00:01:53;;;;;;;13.33;6.03;;;3.20;99.90;;;;;;4914625;29;20320;-77
2023/04/27 00:04:20;;;;;;;8.93;5.87;;;3.20;99.90;;;;;;4897990;29;20214;-77
2023/04/27 00:06:47;;;;;;;12.30;6.27;;;3.10;99.90;;;;;;4914516;29;20325;-76
2023/04/27 00:09:14;;;;;;;11.70;6.70;;;3.10;99.90;;;;;;4896905;29;20238;-76
2023/04/27 00:11:41;;;;;;;10.33;6.23;;;3.10;99.90;;;;;;4913800;29;20312;-77
2023/04/27 00:14:08;;;;;;;12.00;6.43;;;3.00;99.90;;;;;;4917797;29;20358;-78
2023/04/27 00:16:35;;;;;;;15.87;7.63;;;3.00;99.90;;;;;;4913815;29;20212;-78
2023/04/27 00:19:02;;;;;;;11.90;6.53;;;3.00;99.90;;;;;;4896900;29;20214;-76
2023/04/27 00:21:29;;;;;;;14.63;6.40;;;3.00;99.90;;;;;;4914015;29;20220;-78
2023/04/27 00:23:55;;;;;;;13.57;6.17;;;2.90;99.90;;;;;;4914290;29;20298;-77
2023/04/27 00:26:22;;;;;;;9.73;5.93;;;2.90;99.90;;;;;;4897119;29;20690;-77
2023/04/27 00:28:49;;;;;;;14.73;6.73;;;2.80;99.90;;;;;;4914070;29;20317;-77
2023/04/27 00:31:16;;;;;;;11.07;6.80;;;2.80;99.90;;;;;;4913908;29;20205;-77
2023/04/27 00:33:43;;;;;;;14.53;7.27;;;2.70;99.90;;;;;;4914158;29;20206;-79
2023/04/27 00:36:09;;;;;;;13.20;7.27;;;2.70;99.90;;;;;;4913320;29;20204;-78
2023/04/27 00:38:36;;;;;;;17.03;7.67;;;2.70;99.90;;;;;;4913706;29;20257;-77
2023/04/27 00:41:05;;;;;;;12.60;6.43;;;2.70;99.90;;;;;;4913981;29;20202;-77
2023/04/27 00:43:39;;;;;;;13.97;8.67;;;2.60;99.90;;;;;;4913523;29;20215;-78
2023/04/27 00:46:07;;;;;;;15.40;7.80;;;2.60;99.90;;;;;;4913412;29;20829;-77
2023/04/27 00:48:34;;;;;;;16.10;8.70;;;2.60;99.90;;;;;;4913545;29;20240;-77
2023/04/27 00:51:01;;;;;;;16.37;8.23;;;2.60;99.90;;;;;;4913665;29;20209;-77
2023/04/27 00:53:28;;;;;;;17.10;8.67;;;2.50;99.90;;;;;;4909925;29;20300;-76
2023/04/27 00:55:56;;;;;;;17.60;8.13;;;2.50;99.90;;;;;;4913406;29;20198;-78
2023/04/27 00:58:24;;;;;;;14.17;8.20;;;2.50;99.90;;;;;;4926202;28;20237;-78
2023/04/27 01:00:51;;;;;;;16.53;7.87;;;2.50;99.90;;;;;;4931989;29;20883;-77
2023/04/27 01:03:18;;;;;;;17.93;8.40;;;2.50;99.90;;;;;;4932164;29;20678;-78
2023/04/27 01:05:45;;;;;;;16.20;8.40;;;2.40;99.90;;;;;;4918545;29;20735;-78
2023/04/27 01:08:12;;;;;;;17.43;9.03;;;2.40;99.90;;;;;;4932340;29;20554;-77
2023/04/27 01:10:40;;;;;;;17.70;8.30;;;2.40;99.90;;;;;;4931779;29;20643;-78
2023/04/27 01:13:07;;;;;;;13.90;8.07;;;2.40;99.90;;;;;;4934728;29;20236;-78
2023/04/27 01:15:34;;;;;;;17.83;8.53;;;2.30;99.90;;;;;;4914947;29;20586;-80
2023/04/27 01:18:01;;;;;;;15.33;7.83;;;2.30;99.90;;;;;;4932060;29;20728;-77
2023/04/27 01:20:29;;;;;;;17.80;8.50;;;2.30;99.90;;;;;;4931953;29;20309;-76
2023/04/27 01:22:57;;;;;;;14.70;7.47;;;2.30;99.90;;;;;;4932064;29;20209;-77
2023/04/27 01:25:24;;;;;;;15.50;8.30;;;2.30;99.90;;;;;;4936276;29;20280;-77
2023/04/27 01:27:52;;;;;;;18.70;8.57;;;2.20;99.90;;;;;;4932310;29;20219;-76
2023/04/27 01:30:21;;;;;;;16.03;8.27;;;2.20;99.90;;;;;;4931742;29;20251;-77
2023/04/27 01:32:48;;;;;;;15.43;8.50;;;2.20;99.90;;;;;;4931977;29;20219;-77
2023/04/27 01:35:16;;;;;;;15.33;8.57;;;2.20;99.90;;;;;;4931709;29;20660;-76
2023/04/27 01:37:42;;;;;;;16.20;8.13;;;2.10;99.90;;;;;;4932231;29;20271;-78
2023/04/27 01:40:10;;;;;;;18.87;8.23;;;2.10;99.90;;;;;;4920978;29;20214;-78
2023/04/27 01:42:37;;;;;;;21.73;9.27;;;2.10;99.90;;;;;;4928350;29;20212;-78
2023/04/27 01:45:04;;;;;;;17.43;8.60;;;2.10;99.90;;;;;;4916620;29;20216;-78
2023/04/27 01:47:31;;;;;;;16.90;8.73;;;2.00;99.90;;;;;;4939203;29;20249;-78
2023/04/27 01:49:58;;;;;;;19.47;7.97;;;2.00;99.90;;;;;;4931772;29;20271;-76
2023/04/27 01:52:25;;;;;;;17.13;8.27;;;2.00;99.90;;;;;;4931774;29;20220;-78
2023/04/27 01:54:51;;;;;;;19.83;8.77;;;2.00;99.90;;;;;;4931939;29;20216;-79
2023/04/27 01:57:18;;;;;;;16.77;9.27;;;2.00;99.90;;;;;;4933839;29;20259;-78
2023/04/27 01:59:45;;;;;;;17.60;9.30;;;1.90;99.90;;;;;;4938308;29;20239;-77
2023/04/27 02:02:12;;;;;;;22.53;9.97;;;1.90;99.90;;;;;;4937139;29;20320;-76
2023/04/27 02:04:38;;;;;;;19.63;10.60;;;1.90;99.90;;;;;;4935251;29;20251;-78
2023/04/27 02:07:05;;;;;;;26.37;11.37;;;1.90;99.90;;;;;;4935518;29;20228;-77
2023/04/27 02:09:41;;;;;;;25.00;13.17;;;1.80;99.90;;;;;;4935526;29;20235;-78
2023/04/27 02:12:11;;;;;;;23.37;11.63;;;1.80;99.90;;;;;;4932997;29;20239;-77
2023/04/27 02:14:38;;;;;;;29.27;13.10;;;1.80;99.90;;;;;;4935154;29;20270;-77
2023/04/27 02:17:05;;;;;;;22.13;11.03;;;1.80;99.90;;;;;;4934997;29;20232;-78
2023/04/27 02:19:32;;;;;;;23.40;11.80;;;1.80;99.90;;;;;;4925292;29;20732;-77
2023/04/27 02:21:59;;;;;;;23.00;11.53;;;1.70;99.90;;;;;;4933891;29;20216;-78
2023/04/27 02:24:26;;;;;;;25.30;11.90;;;1.70;99.90;;;;;;4934759;29;20323;-77
2023/04/27 02:26:53;;;;;;;24.20;11.67;;;1.70;99.90;;;;;;4934869;29;20278;-77
2023/04/27 02:29:20;;;;;;;27.23;11.13;;;1.70;99.90;;;;;;4917651;29;20910;-78
2023/04/27 02:31:48;;;;;;;24.43;10.63;;;1.60;99.90;;;;;;4934284;29;20246;-78
2023/04/27 02:34:35;;;;;;;21.33;10.40;;;1.60;99.90;;;;;;4934624;29;20216;-78
2023/04/27 02:37:02;;;;;;;23.07;10.50;;;1.50;99.90;;;;;;4917526;29;20342;-78
2023/04/27 02:39:29;;;;;;;20.70;9.40;;;1.50;99.90;;;;;;4916291;29;20649;-78
2023/04/27 02:41:56;;;;;;;18.30;9.03;;;1.50;99.90;;;;;;4917992;29;20219;-78
2023/04/27 02:44:23;;;;;;;18.13;8.60;;;1.50;99.90;;;;;;4934476;29;20316;-76
2023/04/27 02:46:50;;;;;;;21.43;9.30;;;1.50;99.90;;;;;;4935601;29;20272;-79
2023/04/27 02:49:17;;;;;;;21.20;8.53;;;1.40;99.90;;;;;;4934913;29;20245;-77
2023/04/27 02:51:47;;;;;;;19.40;8.83;;;1.40;99.90;;;;;;4934879;29;20288;-79
2023/04/27 02:54:13;;;;;;;18.07;8.87;;;1.40;99.90;;;;;;4918230;29;20251;-78
2023/04/27 02:56:40;;;;;;;13.30;6.80;;;1.40;99.90;;;;;;4917437;29;20361;-78
2023/04/27 02:59:07;;;;;;;15.40;7.87;;;1.50;99.90;;;;;;4933857;29;20599;-78
2023/04/27 03:01:35;;;;;;;16.47;7.90;;;1.30;99.90;;;;;;4932990;29;20603;-78
2023/04/27 03:04:02;;;;;;;17.07;7.63;;;1.30;99.90;;;;;;4936593;29;20201;-78
2023/04/27 03:06:29;;;;;;;14.67;7.30;;;1.30;99.90;;;;;;4934420;29;20297;-78
2023/04/27 03:08:56;;;;;;;14.87;7.27;;;1.30;99.90;;;;;;4933718;29;20662;-78
2023/04/27 03:11:23;;;;;;;17.30;7.13;;;1.20;99.90;;;;;;4933886;29;20290;-80
2023/04/27 03:13:50;;;;;;;17.80;7.73;;;1.20;99.90;;;;;;4936844;29;20286;-77
2023/04/27 03:16:16;;;;;;;18.33;7.90;;;1.10;99.90;;;;;;4936537;29;20747;-79
2023/04/27 03:18:43;;;;;;;15.33;7.60;;;1.10;99.90;;;;;;4933918;29;20204;-78
2023/04/27 03:21:11;;;;;;;13.60;6.63;;;1.10;99.90;;;;;;4934426;29;20211;-79
2023/04/27 03:23:39;;;;;;;15.07;7.40;;;1.10;99.90;;;;;;4934352;29;20198;-78
2023/04/27 03:26:11;;;;;;;16.20;7.47;;;1.10;99.90;;;;;;4919027;29;20202;-77
2023/04/27 03:28:38;;;;;;;15.67;7.93;;;1.10;99.90;;;;;;4934089;29;20686;-79
2023/04/27 03:31:09;;;;;;;18.97;7.97;;;1.10;99.90;;;;;;4933701;29;20327;-77
2023/04/27 03:33:36;;;;;;;19.97;7.70;;;1.00;99.90;;;;;;4933755;29;20254;-78
2023/04/27 03:36:05;;;;;;;15.27;7.13;;;1.10;99.90;;;;;;4933700;29;20286;-76
2023/04/27 03:38:32;;;;;;;15.20;8.20;;;1.00;99.90;;;;;;4933801;29;20639;-78
2023/04/27 03:40:59;;;;;;;13.10;7.90;;;1.00;99.90;;;;;;4934160;29;20218;-77
2023/04/27 03:43:26;;;;;;;15.80;7.83;;;1.00;99.90;;;;;;4933816;29;20320;-77
2023/04/27 03:45:53;;;;;;;15.93;7.70;;;1.00;99.90;;;;;;4933379;29;20751;-78
2023/04/27 03:48:20;;;;;;;16.27;7.93;;;1.00;99.90;;;;;;4933378;29;20215;-77
2023/04/27 03:50:48;;;;;;;20.67;9.33;;;1.00;99.90;;;;;;4932592;29;20226;-78
2023/04/27 03:53:14;;;;;;;19.93;9.33;;;1.00;99.90;;;;;;4933958;29;20420;-78
2023/04/27 03:55:42;;;;;;;20.23;10.23;;;1.00;99.90;;;;;;4933557;29;20325;-79
2023/04/27 03:58:10;;;;;;;16.33;8.97;;;1.00;99.90;;;;;;4915803;29;20305;-79
2023/04/27 04:00:37;;;;;;;25.40;10.47;;;1.00;99.90;;;;;;4932258;29;20717;-78
2023/04/27 04:03:05;;;;;;;20.40;10.77;;;1.00;99.90;;;;;;4915938;29;20210;-78
2023/04/27 04:05:32;;;;;;;22.77;9.60;;;1.00;99.90;;;;;;4916321;29;20246;-78
2023/04/27 04:07:59;;;;;;;19.17;9.73;;;1.00;99.90;;;;;;4935982;29;20327;-78
2023/04/27 04:10:26;;;;;;;22.30;9.97;;;1.00;99.90;;;;;;4933179;29;20299;-78
2023/04/27 04:12:54;;;;;;;20.87;9.63;;;1.00;99.90;;;;;;4917297;29;20237;-78
2023/04/27 04:15:22;;;;;;;21.97;10.20;;;1.00;99.90;;;;;;4926703;29;20236;-78
2023/04/27 04:17:49;;;;;;;19.43;10.00;;;1.00;99.90;;;;;;4930287;29;20575;-78
2023/04/27 04:20:16;;;;;;;20.73;9.97;;;1.00;99.90;;;;;;4932415;29;20620;-78
2023/04/27 04:22:43;;;;;;;22.30;9.67;;;1.10;99.90;;;;;;4932880;29;20322;-78
2023/04/27 04:25:11;;;;;;;22.97;11.53;;;1.10;99.90;;;;;;4932228;29;20789;-81
2023/04/27 04:27:39;;;;;;;20.07;10.17;;;1.10;99.90;;;;;;4932976;29;20222;-79
2023/04/27 04:30:07;;;;;;;24.93;11.17;;;1.10;99.90;;;;;;4934316;29;20319;-80
2023/04/27 04:32:36;;;;;;;21.00;11.33;;;1.10;99.90;;;;;;4932926;29;20238;-77
2023/04/27 04:35:07;;;;;;;21.37;10.17;;;1.10;99.90;;;;;;4932604;29;20238;-77
2023/04/27 04:37:34;;;;;;;23.67;11.13;;;1.20;99.90;;;;;;4932979;29;20243;-78
2023/04/27 04:40:07;;;;;;;21.07;10.63;;;1.20;99.90;;;;;;4933060;29;20257;-79
2023/04/27 04:42:38;;;;;;;21.73;10.73;;;1.20;99.90;;;;;;4932782;29;20215;-78
2023/04/27 04:45:06;;;;;;;22.17;10.23;;;1.20;99.90;;;;;;4916087;29;20310;-77
2023/04/27 04:47:35;;;;;;;19.00;9.90;;;1.20;99.90;;;;;;4916130;29;20206;-78
2023/04/27 04:50:02;;;;;;;25.33;9.93;;;1.30;99.90;;;;;;4932892;29;20228;-77
2023/04/27 04:52:29;;;;;;;21.57;10.10;;;1.30;99.90;;;;;;4930483;29;20624;-78
2023/04/27 04:54:56;;;;;;;21.53;10.23;;;1.30;99.90;;;;;;4932411;29;20219;-77
2023/04/27 04:57:23;;;;;;;20.63;11.00;;;1.30;99.90;;;;;;4927267;29;20326;-78
2023/04/27 04:59:49;;;;;;;22.00;11.10;;;1.40;99.90;;;;;;4925508;29;20596;-77
2023/04/27 05:02:17;;;;;;;22.63;11.07;;;1.40;99.90;;;;;;4907973;29;20209;-78
2023/04/27 05:04:44;;;;;;;25.73;11.37;;;1.40;99.90;;;;;;4913755;29;20631;-77
2023/04/27 05:07:16;;;;;;;23.00;10.37;;;1.40;99.90;;;;;;4930298;29;20211;-79
2023/04/27 05:09:49;;;;;;;23.73;10.67;;;1.50;99.90;;;;;;4925955;29;20235;-78
2023/04/27 05:12:15;;;;;;;21.50;10.20;;;1.50;99.90;;;;;;4928308;29;20207;-78
2023/04/27 05:14:43;;;;;;;27.77;11.73;;;1.60;99.90;;;;;;4929372;29;20894;-77
2023/04/27 05:17:09;;;;;;;23.90;10.07;;;1.60;99.90;;;;;;4911503;29;20265;-78
2023/04/27 05:19:36;;;;;;;21.90;10.73;;;1.60;99.90;;;;;;4929321;29;20208;-81
2023/04/27 05:22:03;;;;;;;23.87;10.53;;;1.70;99.90;;;;;;4935569;29;20219;-79
2023/04/27 05:24:30;;;;;;;26.13;11.37;;;1.70;99.90;;;;;;4931633;29;20669;-79
2023/04/27 05:26:57;;;;;;;25.87;11.40;;;1.80;99.90;;;;;;4915503;29;20258;-77
2023/04/27 05:29:27;;;;;;;23.77;10.90;;;1.90;99.90;;;;;;4931650;29;20233;-79
2023/04/27 05:31:54;;;;;;;23.30;11.50;;;1.90;99.90;;;;;;4938231;29;20293;-78
2023/04/27 05:34:21;;;;;;;25.93;11.67;;;2.00;99.90;;;;;;4932135;29;20204;-78
2023/04/27 05:36:48;;;;;;;26.23;11.97;;;2.00;99.90;;;;;;4940647;29;20299;-77
2023/04/27 05:39:15;;;;;;;22.40;11.47;;;2.10;99.90;;;;;;4935261;29;20684;-80
2023/04/27 05:41:42;;;;;;;23.23;11.63;;;2.20;99.90;;;;;;4937594;29;20213;-78
2023/04/27 05:44:08;;;;;;;24.73;11.93;;;2.20;99.90;;;;;;4931147;29;20656;-80
2023/04/27 05:46:35;;;;;;;21.47;11.10;;;2.30;99.90;;;;;;4935407;29;20259;-78
2023/04/27 05:49:04;;;;;;;24.10;10.97;;;2.40;99.90;;;;;;4935921;29;20201;-78
2023/04/27 05:51:32;;;;;;;22.10;10.63;;;2.40;99.90;;;;;;4942165;29;20692;-79
2023/04/27 05:54:00;;;;;;;24.33;11.13;;;2.50;99.90;;;;;;4933984;29;20201;-79
2023/04/27 05:56:29;;;;;;;22.90;10.87;;;2.70;99.90;;;;;;4936311;29;20213;-78
2023/04/27 05:58:56;;;;;;;22.67;11.43;;;2.80;99.90;;;;;;4933588;29;20241;-76
2023/04/27 06:01:24;;;;;;;23.57;11.90;;;2.80;99.90;;;;;;4934178;29;20225;-76
2023/04/27 06:03:50;;;;;;;34.93;13.57;;;3.00;99.90;;;;;;4917381;29;20721;-78
2023/04/27 06:06:17;;;;;;;25.53;12.60;;;3.30;99.90;;;;;;4921413;29;20220;-77
2023/04/27 06:08:44;;;;;;;21.83;11.37;;;4.30;99.90;;;;;;4933931;29;20611;-77
2023/04/27 06:11:11;;;;;;;29.83;11.60;;;5.60;99.90;;;;;;4934421;29;20698;-78
2023/04/27 06:13:38;;;;;;;17.33;9.53;;;7.00;99.90;;;;;;4917309;29;20203;-78
2023/04/27 06:16:04;;;;;;;18.07;9.40;;;9.30;99.90;;;;;;4935973;29;20624;-77
2023/04/27 06:18:31;;;;;;;15.77;8.50;;;9.20;99.90;;;;;;4936090;29;20235;-77
2023/04/27 06:21:00;;;;;;;15.90;9.83;;;10.30;99.90;;;;;;4936197;29;20209;-77
2023/04/27 06:23:27;;;;;;;14.63;8.67;;;11.10;99.90;;;;;;4934801;29;20205;-77
2023/04/27 06:25:54;;;;;;;11.97;8.03;;;12.20;99.90;;;;;;4935596;29;20296;-77
2023/04/27 06:28:21;;;;;;;13.77;8.70;;;12.20;99.90;;;;;;4936156;29;20217;-76
2023/04/27 06:30:47;;;;;;;12.33;8.30;;;13.00;99.90;;;;;;4937623;29;20233;-76
2023/04/27 06:33:14;;;;;;;13.98;8.10;;;13.90;99.90;;;;;;4930055;29;20628;-80
2023/04/27 06:35:41;;;;;;;12.63;8.38;;;14.70;99.90;;;;;;4934593;29;20299;-76
2023/04/27 06:38:10;;;;;;;13.75;8.55;;;15.20;99.90;;;;;;4934035;29;20201;-77
2023/04/27 06:40:36;;;;;;;12.13;7.95;;;15.50;99.90;;;;;;4934905;29;20236;-76
2023/04/27 06:43:03;;;;;;;10.85;7.63;;;15.90;99.90;;;;;;4934046;29;20284;-77
2023/04/27 06:45:30;;;;;;;12.25;7.90;;;16.40;99.90;;;;;;4933500;29;20591;-77
2023/04/27 06:47:57;;;;;;;13.20;8.40;;;16.40;99.90;;;;;;4935689;29;20205;-77
2023/04/27 06:50:23;;;;;;;10.82;8.20;;;16.60;99.90;;;;;;4933113;29;20698;-76
2023/04/27 06:52:50;;;;;;;10.15;7.75;;;16.90;99.90;;;;;;4934911;29;20249;-76
2023/04/27 06:55:17;;;;;;;10.90;8.32;;;17.40;99.90;;;;;;4932170;29;20296;-76
2023/04/27 06:57:44;;;;;;;10.65;7.38;;;17.40;99.90;;;;;;4934702;29;20329;-77
2023/04/27 07:00:12;;;;;;;13.57;8.00;;;17.40;99.90;;;;;;4932484;29;20268;-77
2023/04/27 07:02:39;;;;;;;10.88;7.15;;;17.40;99.90;;;;;;4932099;29;20280;-76
2023/04/27 07:05:06;;;;;;;8.10;6.72;;;17.40;99.90;;;;;;4915859;29;20197;-76
2023/04/27 07:07:33;;;;;;;12.20;7.13;;;17.40;99.90;;;;;;4933740;29;20232;-77
2023/04/27 07:10:00;;;;;;;9.65;7.30;;;17.40;99.90;;;;;;4932304;29;20232;-77
2023/04/27 07:12:27;;;;;;;9.45;7.68;;;17.50;99.90;;;;;;4934931;29;20235;-76
2023/04/27 07:14:54;;;;;;;10.27;7.00;;;17.70;99.90;;;;;;4935359;29;20213;-76
2023/04/27 07:17:21;;;;;;;10.45;6.60;;;17.70;99.90;;;;;;4935790;29;20213;-78
2023/04/27 07:19:47;;;;;;;9.35;6.97;;;17.70;99.90;;;;;;4919082;29;20233;-77
2023/04/27 07:22:14;;;;;;;10.25;6.40;;;17.80;99.90;;;;;;4918840;29;20214;-76
2023/04/27 07:24:41;;;;;;;7.80;5.88;;;17.90;99.90;;;;;;4936850;29;20201;-77
2023/04/27 07:27:09;;;;;;;10.02;6.28;;;17.90;99.90;;;;;;4933388;29;20642;-76
2023/04/27 07:29:36;;;;;;;9.52;5.15;;;18.00;99.90;;;;;;4916511;29;20217;-77
2023/04/27 07:32:07;;;;;;;8.27;5.13;;;18.10;99.90;;;;;;4936743;29;20224;-77
2023/04/27 07:34:34;;;;;;;6.65;4.65;;;18.00;99.90;;;;;;4932214;29;20236;-77
2023/04/27 07:37:18;;;;;;;7.70;5.13;;;18.10;99.90;;;;;;4918737;29;20284;-79
2023/04/27 07:39:50;;;;;;;6.47;4.35;;;18.10;99.90;;;;;;4934254;29;20634;-78
2023/04/27 07:42:18;;;;;;;7.72;4.60;;;18.30;99.90;;;;;;4920949;29;20216;-79
2023/04/27 07:44:46;;;;;;;5.30;4.35;;;18.00;99.90;;;;;;4937517;29;20256;-79
2023/04/27 07:47:13;;;;;;;6.85;5.22;;;17.70;99.90;;;;;;4933734;29;20261;-79
2023/04/27 07:49:39;;;;;;;7.43;4.90;;;17.80;99.90;;;;;;4933690;29;20762;-79
2023/04/27 07:52:07;;;;;;;6.97;4.18;;;17.80;99.90;;;;;;4933182;29;20725;-78
2023/04/27 07:54:34;;;;;;;6.95;4.72;;;17.70;99.90;;;;;;4935451;29;20565;-79
2023/04/27 07:57:08;;;;;;;8.77;5.32;;;17.70;99.90;;;;;;4932619;29;20629;-79
2023/04/27 07:59:35;;;;;;;9.48;5.00;;;17.70;99.90;;;;;;4912475;29;20543;-78
2023/04/27 08:02:02;;;;;;;7.55;5.20;;;17.80;99.90;;;;;;4912167;29;20213;-79
2023/04/27 08:04:45;;;;;;;9.13;4.95;;;17.90;99.90;;;;;;4933173;29;20282;-80
2023/04/27 08:07:15;;;;;;;8.70;4.95;;;18.10;99.90;;;;;;4933869;29;20198;-79
2023/04/27 08:09:42;;;;;;;5.38;4.22;;;18.30;99.90;;;;;;4927023;29;20205;-79
2023/04/27 08:12:09;;;;;;;6.07;4.30;;;18.40;99.90;;;;;;4919939;29;20300;-80
2023/04/27 08:14:35;;;;;;;11.00;4.38;;;18.30;99.30;;;;;;4917572;29;20691;-79
2023/04/27 08:17:02;;;;;;;4.78;3.88;;;18.20;99.40;;;;;;4915546;29;20224;-80
2023/04/27 08:19:29;;;;;;;5.88;3.13;;;18.30;98.00;;;;;;4914717;29;20584;-80
2023/04/27 08:21:56;;;;;;;5.75;3.40;;;18.40;97.10;;;;;;4913464;29;20540;-80
2023/04/27 08:24:23;;;;;;;6.80;3.53;;;17.90;97.30;;;;;;4913962;29;20698;-80
2023/04/27 08:26:50;;;;;;;5.60;3.53;;;17.60;96.80;;;;;;4897378;29;20210;-78
2023/04/27 08:29:20;;;;;;;5.47;3.33;;;17.70;97.10;;;;;;4913066;29;20232;-79
2023/04/27 08:31:57;;;;;;;6.60;4.18;;;17.80;96.50;;;;;;4910700;29;20694;-79
2023/04/27 08:34:24;;;;;;;6.70;3.80;;;17.90;96.30;;;;;;4915032;29;20210;-79
2023/04/27 08:36:52;;;;;;;5.90;3.58;;;17.90;95.70;;;;;;4911673;29;20513;-78
2023/04/27 08:39:19;;;;;;;4.78;3.08;;;18.00;95.60;;;;;;4914631;29;20202;-79
2023/04/27 08:41:46;;;;;;;7.78;4.00;;;18.10;95.40;;;;;;4896326;29;20640;-79
2023/04/27 08:44:13;;;;;;;6.20;3.58;;;18.10;95.70;;;;;;4910146;29;20723;-78
2023/04/27 08:46:40;;;;;;;5.20;3.20;;;18.00;94.90;;;;;;4909591;29;20626;-78
2023/04/27 08:49:07;;;;;;;6.15;2.92;;;17.90;94.40;;;;;;4912520;29;20228;-79
2023/04/27 08:51:34;;;;;;;5.85;3.40;;;17.90;94.30;;;;;;4895759;29;20241;-79
2023/04/27 08:54:01;;;;;;;7.03;2.78;;;17.90;94.20;;;;;;4910337;29;20202;-80
2023/04/27 08:56:29;;;;;;;6.25;3.05;;;18.00;94.70;;;;;;4913555;29;20232;-78
2023/04/27 08:58:57;;;;;;;4.82;2.90;;;18.10;93.90;;;;;;4915766;29;20616;-78
2023/04/27 09:01:26;;;;;;;5.68;2.85;;;18.30;93.60;;;;;;4931988;29;20433;-79
2023/04/27 09:03:58;;;;;;;7.88;3.08;;;18.10;92.70;;;;;;4915236;29;20658;-80
2023/04/27 09:06:34;;;;;;;8.00;3.00;;;18.20;92.70;;;;;;4931556;29;20284;-78
2023/04/27 09:09:02;;;;;;;6.15;2.90;;;18.20;92.80;;;;;;4931551;29;20205;-80
2023/04/27 09:11:37;;;;;;;4.68;3.15;;;18.00;92.70;;;;;;4916134;29;20713;-79
2023/04/27 09:14:19;;;;;;;5.82;3.17;;;18.00;93.30;;;;;;4933652;29;20205;-79
2023/04/27 09:16:57;;;;;;;5.75;2.90;;;18.10;92.70;;;;;;4933074;29;20213;-78
2023/04/27 09:19:25;;;;;;;5.78;3.10;;;18.10;92.40;;;;;;4932678;29;20229;-79
2023/04/27 09:22:12;;;;;;;5.15;3.35;;;18.10;92.20;;;;;;4929419;29;20240;-79
2023/04/27 09:24:50;;;;;;;8.35;2.90;;;17.90;92.20;;;;;;4914506;29;20300;-79
2023/04/27 09:27:20;;;;;;;4.05;2.78;;;17.70;92.70;;;;;;4917940;29;20213;-80
2023/04/27 09:29:48;;;;;;;6.22;3.13;;;17.70;92.80;;;;;;4930885;29;20260;-80
2023/04/27 09:32:16;;;;;;;3.28;2.83;;;17.60;92.10;;;;;;4931938;29;20233;-81
2023/04/27 09:34:44;;;;;;;4.38;2.60;;;17.70;91.80;;;;;;4914811;29;20233;-79
2023/04/27 09:37:11;;;;;;;8.48;3.50;;;17.70;91.90;;;;;;4932507;29;20209;-79
2023/04/27 09:39:39;;;;;;;4.32;2.70;;;17.60;91.40;;;;;;4934409;29;20201;-81
2023/04/27 09:42:07;;;;;;;7.43;3.00;;;17.50;91.30;;;;;;4928659;29;21033;-79
2023/04/27 09:44:35;;;;;;;7.00;3.75;;;17.40;91.00;;;;;;4932569;29;20594;-80
2023/04/27 09:47:03;;;;;;;8.57;3.17;;;17.30;90.90;;;;;;4932826;29;20268;-80
2023/04/27 09:49:33;;;;;;;3.83;2.80;;;17.10;90.70;;;;;;4932561;29;20227;-79
2023/04/27 09:52:01;;;;;;;5.55;3.13;;;17.00;91.00;;;;;;4930839;29;20253;-78
2023/04/27 09:54:31;;;;;;;3.45;2.88;;;16.90;90.30;;;;;;4932903;29;20264;-79
2023/04/27 09:57:22;;;;;;;3.90;3.38;;;16.80;90.60;;;;;;4933178;29;20217;-77
2023/04/27 10:00:06;;;;;;;5.75;3.15;;;16.60;89.90;;;;;;4913842;29;20222;-80
2023/04/27 10:02:44;;;;;;;3.72;3.08;;;16.60;89.20;;;;;;4913130;29;20224;-79
2023/04/27 10:05:45;;;;;;;5.20;3.28;;;16.50;89.50;;;;;;4911081;29;20247;-79
2023/04/27 10:08:13;;;;;;;10.02;3.92;;;16.50;90.20;;;;;;4893835;29;20658;-79
2023/04/27 10:10:52;;;;;;;5.57;3.13;;;16.30;90.50;;;;;;4913522;29;20210;-79
2023/04/27 10:13:23;;;;;;;5.47;3.40;;;16.20;91.10;;;;;;4912518;29;20576;-78
2023/04/27 10:15:51;;;;;;;4.65;3.50;;;16.30;90.90;;;;;;4909865;29;20214;-80
2023/04/27 10:18:28;;;;;;;5.30;3.17;;;16.30;91.50;;;;;;4914766;29;20265;-79
2023/04/27 10:21:12;;;;;;;3.92;3.10;;;16.50;91.50;;;;;;4915289;29;20214;-79
2023/04/27 10:23:47;;;;;;;7.97;3.40;;;16.60;90.60;;;;;;4915783;29;20229;-79
2023/04/27 10:26:25;;;;;;;5.18;3.40;;;16.60;89.90;;;;;;4916286;29;20214;-79
2023/04/27 10:29:06;;;;;;;6.07;3.50;;;16.70;89.00;;;;;;4914774;29;20202;-80
2023/04/27 10:31:33;;;;;;;6.18;3.65;;;16.50;89.80;;;;;;4916527;29;20238;-80
2023/04/27 10:34:14;;;;;;;5.75;3.78;;;16.60;89.30;;;;;;4915508;29;20206;-79
2023/04/27 10:36:41;;;;;;;4.75;3.50;;;16.50;89.00;;;;;;4913686;29;20325;-79
2023/04/27 10:39:33;;;;;;;6.03;3.38;;;16.30;89.80;;;;;;4899468;29;20222;-80
2023/04/27 10:42:13;;;;;;;7.05;3.78;;;16.30;90.00;;;;;;4916107;29;20222;-78
2023/04/27 10:44:40;;;;;;;5.72;3.72;;;16.30;90.70;;;;;;4915804;29;20214;-79
2023/04/27 10:47:15;;;;;;;7.00;4.05;;;16.30;90.40;;;;;;4914408;29;20214;-79
2023/04/27 10:49:54;;;;;;;4.32;3.90;;;16.30;90.10;;;;;;4915813;29;20201;-79
2023/04/27 10:52:47;;;;;;;6.65;4.03;;;16.30;90.00;;;;;;4897359;29;20225;-77
2023/04/27 10:55:34;;;;;;;7.33;3.60;;;16.20;90.20;;;;;;4899026;29;20212;-80
2023/04/27 10:58:51;;;;;;;4.95;3.53;;;16.20;90.20;;;;;;4918705;29;20989;-78
2023/04/27 11:01:36;;;;;;;4.17;3.33;;;16.20;90.20;;;;;;4919431;29;20216;-79
2023/04/27 11:04:19;;;;;;;6.57;3.57;;;16.20;89.70;;;;;;4933092;29;20249;-79
2023/04/27 11:07:27;;;;;;;6.37;3.67;;;16.20;90.10;;;;;;4918933;29;20635;-81
2023/04/27 11:10:07;;;;;;;6.30;4.27;;;16.10;89.20;;;;;;4936711;29;20215;-79
2023/04/27 11:12:35;;;;;;;7.13;4.37;;;16.10;89.90;;;;;;4934733;29;20233;-79
2023/04/27 11:15:05;;;;;;;5.53;3.93;;;16.00;89.70;;;;;;4921039;29;20316;-80
2023/04/27 11:17:32;;;;;;;6.30;3.70;;;16.00;89.30;;;;;;4935107;29;20265;-80
2023/04/27 11:20:04;;;;;;;5.70;3.53;;;16.10;90.20;;;;;;4934918;29;20866;-79
2023/04/27 11:22:31;;;;;;;5.83;3.97;;;16.20;89.90;;;;;;4917149;29;20201;-80
2023/04/27 11:24:59;;;;;;;5.60;3.53;;;16.40;89.20;;;;;;4934274;29;20560;-79
2023/04/27 11:27:37;;;;;;;6.93;3.83;;;16.40;89.70;;;;;;4934888;29;20208;-78
2023/04/27 11:30:06;;;;;;;6.40;4.15;;;16.40;89.60;;;;;;4933846;29;20252;-79
2023/04/27 11:32:33;;;;;;;6.00;4.10;;;16.30;89.30;;;;;;4917518;29;20229;-82
2023/04/27 11:35:00;;;;;;;7.53;4.00;;;16.30;90.20;;;;;;4934103;29;20206;-82
2023/04/27 11:37:27;;;;;;;5.53;3.80;;;16.40;89.40;;;;;;4933320;29;20606;-79
2023/04/27 11:39:59;;;;;;;5.50;4.50;;;16.50;88.60;;;;;;4917210;29;20575;-79
2023/04/27 11:42:31;;;;;;;6.17;4.30;;;16.50;89.50;;;;;;4934248;29;20209;-81
2023/04/27 11:45:10;;;;;;;6.22;4.15;;;16.60;89.20;;;;;;4915100;29;20225;-79
2023/04/27 11:47:45;;;;;;;5.20;4.00;;;16.50;90.00;;;;;;4932761;29;20205;-81
2023/04/27 11:50:14;;;;;;;6.28;4.05;;;16.70;90.40;;;;;;4933498;29;20201;-79
2023/04/27 11:52:46;;;;;;;7.10;4.73;;;16.80;90.00;;;;;;4930281;29;20262;-79
2023/04/27 11:55:14;;;;;;;5.65;3.92;;;16.80;89.10;;;;;;4930297;29;20315;-78
2023/04/27 11:57:42;;;;;;;6.43;3.90;;;16.80;88.90;;;;;;4915881;29;20572;-80
2023/04/27 12:00:13;;;;;;;7.35;4.32;;;16.90;89.10;;;;;;4931314;29;20229;-80
2023/04/27 12:02:41;;;;;;;5.38;3.65;;;17.10;88.40;;;;;;4928675;29;20591;-80
2023/04/27 12:05:12;;;;;;;5.22;4.22;;;17.10;90.20;;;;;;4915984;29;20221;-80
2023/04/27 12:07:41;;;;;;;6.40;4.28;;;17.20;90.00;;;;;;4931802;29;20543;-79
2023/04/27 12:10:08;;;;;;;7.22;4.85;;;17.20;90.30;;;;;;4935384;29;20216;-78
2023/04/27 12:12:40;;;;;;;8.10;4.70;;;17.10;88.60;;;;;;4933233;29;20235;-80
2023/04/27 12:19:41;;;;;;;8.63;4.88;;;17.20;90.20;;;;;;4924987;29;20675;-80
2023/04/27 12:23:21;;;;;;;7.47;4.25;;;16.80;89.20;;;;;;4919330;29;21032;-80
2023/04/27 12:26:42;;;;;;;5.57;4.90;;;16.70;89.20;;;;;;4891433;29;20698;-79
2023/04/27 12:37:00;;;;;;;5.35;3.70;;;16.60;87.60;;;;;;4861094;29;20211;-80
2023/04/27 12:39:27;;;;;;;7.50;4.45;;;16.80;88.40;;;;;;4863315;29;20219;-79
2023/04/27 12:41:54;;;;;;;7.65;4.32;;;17.10;87.20;;;;;;4855741;29;20708;-81
2023/04/27 12:44:21;;;;;;;5.30;4.43;;;17.20;87.00;;;;;;4890295;29;20256;-80
2023/04/27 12:46:51;;;;;;;6.30;3.97;;;17.20;88.50;;;;;;4891989;29;20211;-80
2023/04/27 12:49:18;;;;;;;6.82;4.43;;;17.40;88.00;;;;;;4890399;29;20206;-80
2023/04/27 12:51:46;;;;;;;9.07;4.20;;;17.40;86.40;;;;;;4878829;29;20237;-81
2023/04/27 12:54:13;;;;;;;8.60;4.40;;;17.50;85.20;;;;;;4878445;29;20933;-79
2023/04/27 12:56:41;;;;;;;5.68;3.85;;;17.30;85.80;;;;;;4893705;29;20210;-80
2023/04/27 12:59:08;;;;;;;5.55;4.20;;;17.30;85.10;;;;;;4892385;29;20230;-81
2023/04/27 13:01:35;;;;;;;7.18;4.82;;;17.10;85.20;;;;;;4891238;29;20211;-80
2023/04/27 13:04:05;;;;;;;7.18;4.65;;;17.00;86.10;;;;;;4891188;29;20212;-79
2023/04/27 13:06:33;;;;;;;6.43;4.25;;;17.10;87.00;;;;;;4896813;29;20241;-79
2023/04/27 13:09:00;;;;;;;6.68;4.47;;;17.20;86.10;;;;;;4931714;29;20205;-80